createdAt,value
2023-02-14T00:01:11.490Z,99.90
2023-02-14T00:03:38.865Z,99.90
2023-02-14T00:06:11.781Z,99.90
2023-02-14T00:08:40.898Z,99.90
2023-02-14T00:11:09.014Z,99.90
2023-02-14T00:13:36.109Z,99.90
2023-02-14T00:16:03.617Z,99.90
2023-02-14T00:18:49.076Z,99.90
2023-02-14T00:21:16.022Z,99.90
2023-02-14T00:23:42.912Z,99.90
2023-02-14T00:26:16.162Z,99.90
2023-02-14T00:28:43.543Z,99.90
2023-02-14T00:31:10.865Z,99.90
2023-02-14T00:33:38.286Z,99.90
2023-02-14T00:36:09.938Z,99.90
2023-02-14T00:38:36.878Z,99.90
2023-02-14T00:41:05.062Z,99.90
2023-02-14T00:43:32.847Z,99.90
2023-02-14T00:45:59.840Z,99.90
2023-02-14T00:48:26.951Z,99.90
2023-02-14T00:50:53.818Z,99.90
2023-02-14T00:53:20.763Z,99.90
2023-02-14T00:55:47.700Z,99.90
2023-02-14T00:58:14.690Z,99.90
2023-02-14T01:00:41.714Z,99.90
2023-02-14T01:03:08.695Z,99.90
2023-02-14T01:05:35.677Z,99.90
2023-02-14T01:08:02.661Z,99.90
2023-02-14T01:10:29.681Z,99.90
2023-02-14T01:12:56.655Z,99.90
2023-02-14T01:15:23.711Z,99.90
2023-02-14T01:17:50.857Z,99.90
2023-02-14T01:20:17.916Z,99.90
2023-02-14T01:22:44.765Z,99.90
2023-02-14T01:25:11.855Z,99.90
2023-02-14T01:27:38.840Z,99.90
2023-02-14T01:30:06.799Z,99.90
2023-02-14T01:32:34.540Z,99.90
2023-02-14T01:35:01.623Z,99.90
2023-02-14T01:37:30.562Z,99.90
2023-02-14T01:39:57.415Z,99.90
2023-02-14T01:42:24.294Z,99.90
2023-02-14T01:44:57.203Z,99.90
2023-02-14T01:47:26.295Z,99.90
2023-02-14T01:49:59.444Z,99.90
2023-02-14T01:52:38.663Z,99.90
2023-02-14T01:55:10.858Z,99.90
2023-02-14T01:57:46.055Z,99.90
2023-02-14T02:00:32.850Z,99.90
2023-02-14T02:03:01.496Z,99.90
2023-02-14T02:05:28.623Z,99.90
2023-02-14T02:07:59.512Z,99.90
2023-02-14T02:10:26.540Z,99.90
2023-02-14T02:12:54.200Z,99.90
2023-02-14T02:15:24.951Z,99.90
2023-02-14T02:18:11.850Z,99.90
2023-02-14T02:21:22.228Z,99.90
2023-02-14T02:24:11.201Z,99.90
2023-02-14T02:27:08.575Z,99.90
2023-02-14T02:30:26.552Z,99.90
2023-02-14T02:33:15.458Z,99.90
2023-02-14T02:36:18.126Z,99.90
2023-02-14T02:39:10.428Z,99.90
2023-02-14T02:41:50.503Z,99.90
2023-02-14T02:44:52.696Z,99.90
2023-02-14T02:47:51.577Z,99.90
2023-02-14T02:51:10.745Z,99.90
2023-02-14T02:54:00.414Z,99.90
2023-02-14T02:56:45.607Z,99.90
2023-02-14T02:59:33.055Z,99.90
2023-02-14T03:02:05.698Z,99.90
2023-02-14T03:04:55.171Z,99.90
2023-02-14T03:07:36.972Z,99.90
2023-02-14T03:10:15.201Z,99.90
2023-02-14T03:13:26.349Z,99.90
2023-02-14T03:16:30.667Z,99.90
2023-02-14T03:20:13.586Z,99.90
2023-02-14T03:22:50.314Z,99.90
2023-02-14T03:25:29.190Z,99.90
2023-02-14T03:28:44.111Z,99.90
2023-02-14T03:31:38.449Z,99.90
2023-02-14T03:34:19.754Z,99.90
2023-02-14T03:37:15.974Z,99.90
2023-02-14T03:40:09.845Z,99.90
2023-02-14T03:42:53.456Z,99.90
2023-02-14T03:45:35.184Z,99.90
2023-02-14T03:48:08.297Z,99.90
2023-02-14T03:50:38.242Z,99.90
2023-02-14T03:53:07.830Z,99.90
2023-02-14T03:55:53.277Z,99.90
2023-02-14T03:58:32.786Z,99.90
2023-02-14T04:01:09.232Z,99.90
2023-02-14T04:03:41.078Z,99.90
2023-02-14T04:06:08.682Z,99.90
2023-02-14T04:08:35.713Z,99.90
2023-02-14T04:11:04.063Z,99.90
2023-02-14T04:13:31.481Z,99.90
2023-02-14T04:15:58.586Z,99.90
2023-02-14T04:18:44.014Z,99.90
2023-02-14T04:21:11.532Z,99.90
2023-02-14T04:23:38.396Z,99.90
2023-02-14T04:26:05.494Z,99.90
2023-02-14T04:28:32.831Z,99.90
2023-02-14T04:31:06.780Z,99.90
2023-02-14T04:33:34.539Z,99.90
2023-02-14T04:36:01.586Z,99.90
2023-02-14T04:38:28.876Z,99.90
2023-02-14T04:40:55.775Z,99.90
2023-02-14T04:43:22.745Z,99.90
2023-02-14T04:45:49.656Z,99.90
2023-02-14T04:48:16.532Z,99.90
2023-02-14T04:50:43.399Z,99.90
2023-02-14T04:53:10.391Z,99.90
2023-02-14T04:55:37.268Z,99.90
2023-02-14T04:58:04.224Z,99.90
2023-02-14T05:00:31.146Z,99.90
2023-02-14T05:02:58.030Z,99.90
2023-02-14T05:05:24.880Z,99.90
2023-02-14T05:07:51.771Z,99.90
2023-02-14T05:10:18.928Z,99.90
2023-02-14T05:12:45.858Z,99.90
2023-02-14T05:15:12.807Z,99.90
2023-02-14T05:17:39.741Z,99.90
2023-02-14T05:20:07.906Z,99.90
2023-02-14T05:22:34.849Z,99.90
2023-02-14T05:25:01.725Z,99.90
2023-02-14T05:29:56.110Z,99.90
2023-02-14T05:32:23.031Z,99.90
2023-02-14T05:34:50.001Z,99.90
2023-02-14T05:37:16.941Z,99.90
2023-02-14T05:39:43.845Z,99.90
2023-02-14T05:42:10.718Z,99.90
2023-02-14T05:44:37.636Z,99.90
2023-02-14T05:47:04.809Z,99.90
2023-02-14T05:49:31.730Z,99.90
2023-02-14T05:51:58.637Z,99.90
2023-02-14T05:54:25.643Z,99.90
2023-02-14T05:56:52.684Z,99.90
2023-02-14T05:59:19.786Z,99.90
2023-02-14T06:01:46.708Z,99.90
2023-02-14T06:04:13.624Z,99.90
2023-02-14T06:06:43.631Z,99.90
2023-02-14T06:09:10.615Z,99.90
2023-02-14T06:11:37.744Z,99.90
2023-02-14T06:14:04.636Z,99.90
2023-02-14T06:16:31.913Z,99.90
2023-02-14T06:18:58.872Z,99.90
2023-02-14T06:21:25.843Z,99.90
2023-02-14T06:23:52.882Z,99.90
2023-02-14T06:28:47.171Z,99.90
2023-02-14T06:31:18.197Z,99.90
2023-02-14T06:33:45.202Z,99.90
2023-02-14T06:36:12.479Z,99.90
2023-02-14T06:41:09.768Z,99.90
2023-02-14T06:43:37.817Z,99.90
2023-02-14T06:46:04.945Z,99.90
2023-02-14T06:48:31.955Z,99.90
2023-02-14T06:50:59.253Z,99.90
2023-02-14T06:53:26.518Z,99.90
2023-02-14T06:55:53.985Z,99.90
2023-02-14T06:58:21.201Z,99.90
2023-02-14T07:00:48.267Z,99.90
2023-02-14T07:03:15.826Z,99.90
2023-02-14T07:05:45.091Z,99.90
2023-02-14T07:08:12.362Z,99.90
2023-02-14T07:10:39.811Z,99.90
2023-02-14T07:13:06.794Z,99.90
2023-02-14T07:15:36.306Z,99.90
2023-02-14T07:18:03.458Z,99.90
2023-02-14T07:20:30.389Z,99.90
2023-02-14T07:22:57.650Z,99.90
2023-02-14T07:25:24.568Z,99.90
2023-02-14T07:27:51.560Z,99.90
2023-02-14T07:30:18.623Z,99.90
2023-02-14T07:32:45.549Z,99.90
2023-02-14T07:35:14.934Z,99.90
2023-02-14T07:37:42.204Z,99.90
2023-02-14T07:40:14.658Z,99.90
2023-02-14T07:42:43.192Z,99.90
2023-02-14T07:45:21.230Z,99.90
2023-02-14T07:47:53.990Z,99.90
2023-02-14T07:50:23.081Z,99.90
2023-02-14T07:52:50.005Z,99.90
2023-02-14T07:55:17.056Z,99.90
2023-02-14T07:57:43.993Z,99.90
2023-02-14T08:00:11.416Z,99.90
2023-02-14T08:02:38.316Z,99.90
2023-02-14T08:05:05.670Z,99.90
2023-02-14T08:07:32.783Z,99.90
2023-02-14T08:09:59.678Z,99.90
2023-02-14T08:12:45.315Z,99.90
2023-02-14T08:15:30.477Z,99.90
2023-02-14T08:17:57.642Z,99.90
2023-02-14T08:20:25.158Z,99.90
2023-02-14T08:22:52.861Z,99.90
2023-02-14T08:25:19.758Z,99.90
2023-02-14T08:27:46.634Z,99.90
2023-02-14T08:30:14.573Z,99.90
2023-02-14T08:32:41.907Z,99.90
2023-02-14T08:35:08.944Z,99.90
2023-02-14T08:37:35.935Z,99.90
2023-02-14T08:40:02.892Z,99.90
2023-02-14T08:42:29.940Z,99.90
2023-02-14T08:44:56.820Z,99.90
2023-02-14T08:47:23.850Z,99.90
2023-02-14T08:49:50.836Z,99.90
2023-02-14T08:52:17.683Z,99.90
2023-02-14T08:54:44.521Z,99.90
2023-02-14T08:57:11.411Z,99.90
2023-02-14T08:59:38.281Z,99.90
2023-02-14T09:02:05.182Z,99.90
2023-02-14T09:04:35.427Z,99.90
2023-02-14T09:07:04.545Z,99.90
2023-02-14T09:09:32.653Z,99.90
2023-02-14T09:12:03.938Z,99.90
2023-02-14T09:14:32.156Z,99.90
2023-02-14T09:17:01.396Z,99.90
2023-02-14T09:19:28.334Z,99.90
2023-02-14T09:21:55.232Z,99.90
2023-02-14T09:24:22.226Z,99.90
2023-02-14T09:26:49.119Z,99.90
2023-02-14T09:29:16.199Z,99.90
2023-02-14T09:31:43.282Z,99.90
2023-02-14T09:34:28.828Z,99.90
2023-02-14T09:37:14.521Z,99.90
2023-02-14T09:39:41.482Z,99.90
2023-02-14T09:42:17.475Z,99.70
2023-02-14T09:44:54.955Z,99.90
2023-02-14T09:47:45.661Z,99.90
2023-02-14T09:50:22.657Z,99.00
2023-02-14T09:52:58.119Z,97.50
2023-02-14T09:55:35.147Z,96.60
2023-02-14T09:58:31.528Z,95.70
2023-02-14T10:01:12.011Z,94.50
2023-02-14T10:04:16.569Z,93.90
2023-02-14T10:06:53.778Z,93.00
2023-02-14T10:09:58.636Z,92.30
2023-02-14T10:13:02.813Z,92.20
2023-02-14T10:15:40.331Z,91.30
2023-02-14T10:18:15.966Z,91.30
2023-02-14T10:20:48.024Z,90.40
2023-02-14T10:23:30.981Z,91.10
2023-02-14T10:26:05.121Z,90.10
2023-02-14T10:28:36.318Z,90.50
2023-02-14T10:31:19.823Z,89.80
2023-02-14T10:34:16.790Z,89.60
2023-02-14T10:37:14.355Z,90.10
2023-02-14T10:39:59.743Z,89.90
2023-02-14T10:42:32.464Z,89.10
2023-02-14T10:45:20.863Z,88.10
2023-02-14T10:48:13.357Z,88.30
2023-02-14T10:51:01.932Z,88.00
2023-02-14T10:53:42.829Z,86.10
2023-02-14T10:56:23.658Z,87.20
2023-02-14T10:58:52.507Z,88.50
2023-02-14T11:01:19.637Z,87.90
2023-02-14T11:04:08.470Z,86.40
2023-02-14T11:06:35.851Z,85.50
2023-02-14T11:09:03.509Z,85.70
2023-02-14T11:11:39.151Z,84.50
2023-02-14T11:14:28.239Z,84.90
2023-02-14T11:16:56.633Z,83.50
2023-02-14T11:19:37.442Z,83.30
2023-02-14T11:22:04.895Z,83.70
2023-02-14T11:24:41.663Z,82.60
2023-02-14T11:27:18.759Z,84.40
2023-02-14T11:29:52.185Z,82.00
2023-02-14T11:32:28.667Z,81.90
2023-02-14T11:35:07.334Z,81.00
2023-02-14T11:37:49.897Z,78.00
2023-02-14T11:40:36.207Z,79.10
2023-02-14T11:43:15.210Z,74.50
2023-02-14T11:45:46.207Z,73.80
2023-02-14T11:48:39.495Z,71.70
2023-02-14T11:51:15.872Z,70.40
2023-02-14T11:53:55.999Z,68.10
2023-02-14T11:56:24.196Z,66.60
2023-02-14T11:58:57.272Z,67.00
2023-02-14T12:01:35.087Z,67.30
2023-02-14T12:04:14.156Z,64.50
2023-02-14T12:06:41.158Z,63.10
2023-02-14T12:09:24.454Z,63.40
2023-02-14T12:11:58.916Z,62.00
2023-02-14T12:14:31.359Z,62.40
2023-02-14T12:17:28.492Z,61.70
2023-02-14T12:20:04.057Z,59.10
2023-02-14T12:22:43.652Z,59.20
2023-02-14T12:25:24.868Z,59.20
2023-02-14T12:28:05.383Z,59.40
2023-02-14T12:30:34.972Z,59.30
2023-02-14T12:33:02.282Z,59.40
2023-02-14T12:36:09.399Z,56.10
2023-02-14T12:39:08.537Z,58.30
2023-02-14T12:42:09.406Z,57.90
2023-02-14T12:44:58.674Z,59.40
2023-02-14T12:48:00.761Z,58.70
2023-02-14T12:50:44.124Z,58.60
2023-02-14T12:53:52.358Z,59.50
2023-02-14T12:56:59.687Z,61.30
2023-02-14T12:59:55.579Z,60.70
2023-02-14T13:02:47.724Z,60.90
2023-02-14T13:05:34.750Z,63.40
2023-02-14T13:08:17.197Z,60.00
2023-02-14T13:11:29.101Z,60.00
2023-02-14T13:14:05.786Z,58.90
2023-02-14T13:16:54.492Z,59.00
2023-02-14T13:19:55.492Z,59.30
2023-02-14T13:22:25.685Z,58.10
2023-02-14T13:24:59.797Z,58.60
2023-02-14T13:27:32.493Z,59.00
2023-02-14T13:30:19.600Z,57.80
2023-02-14T13:32:48.490Z,57.40
2023-02-14T13:35:22.022Z,58.20
2023-02-14T13:37:55.505Z,58.20
2023-02-14T13:40:28.355Z,58.70
2023-02-14T13:43:00.656Z,58.40
2023-02-14T13:45:32.455Z,59.90
2023-02-14T13:48:26.710Z,59.30
2023-02-14T13:51:03.369Z,58.90
2023-02-14T13:53:43.060Z,59.60
2023-02-14T13:56:13.167Z,60.80
2023-02-14T13:58:59.752Z,62.60
2023-02-14T14:01:37.521Z,62.00
2023-02-14T14:04:28.036Z,63.10
2023-02-14T14:07:03.993Z,64.00
2023-02-14T14:09:43.058Z,64.20
2023-02-14T14:12:28.319Z,66.20
2023-02-14T14:15:08.082Z,66.50
2023-02-14T14:17:39.244Z,67.90
2023-02-14T14:20:21.378Z,67.60
2023-02-14T14:22:57.585Z,67.60
2023-02-14T14:25:42.910Z,68.70
2023-02-14T14:28:25.894Z,68.40
2023-02-14T14:30:53.184Z,68.50
2023-02-14T14:33:33.782Z,69.50
2023-02-14T14:36:11.463Z,69.80
2023-02-14T14:38:50.725Z,70.20
2023-02-14T14:41:18.255Z,70.70
2023-02-14T14:43:47.051Z,70.90
2023-02-14T14:46:16.302Z,71.40
2023-02-14T14:48:50.030Z,73.60
2023-02-14T14:51:28.480Z,72.80
2023-02-14T14:54:06.559Z,72.90
2023-02-14T14:56:49.821Z,73.70
2023-02-14T14:59:40.435Z,74.90
2023-02-14T15:02:29.927Z,76.00
2023-02-14T15:04:56.828Z,76.60
2023-02-14T15:07:33.850Z,76.20
2023-02-14T15:10:01.339Z,75.60
2023-02-14T15:12:48.320Z,76.20
2023-02-14T15:15:18.206Z,76.00
2023-02-14T15:17:46.141Z,77.30
2023-02-14T15:20:23.072Z,77.20
2023-02-14T15:22:52.333Z,77.90
2023-02-14T15:25:21.734Z,79.10
2023-02-14T15:27:49.313Z,80.60
2023-02-14T15:30:19.524Z,82.30
2023-02-14T15:32:49.681Z,83.90
2023-02-14T15:35:23.397Z,83.20
2023-02-14T15:37:51.464Z,84.20
2023-02-14T15:40:32.812Z,85.40
2023-02-14T15:43:34.060Z,89.80
2023-02-14T15:46:19.674Z,89.10
2023-02-14T15:48:47.435Z,90.20
2023-02-14T15:51:25.023Z,90.60
2023-02-14T15:54:07.518Z,91.00
2023-02-14T15:56:48.952Z,91.50
2023-02-14T15:59:31.501Z,92.00
2023-02-14T16:02:18.427Z,92.50
2023-02-14T16:04:45.767Z,92.80
2023-02-14T16:07:28.546Z,93.40
2023-02-14T16:10:24.737Z,93.50
2023-02-14T16:13:03.614Z,94.00
2023-02-14T16:15:34.025Z,94.50
2023-02-14T16:18:07.701Z,95.60
2023-02-14T16:20:40.779Z,95.50
2023-02-14T16:23:36.952Z,95.80
2023-02-14T16:26:06.790Z,96.20
2023-02-14T16:28:36.946Z,96.50
2023-02-14T16:31:10.242Z,96.80
2023-02-14T16:33:40.464Z,96.70
2023-02-14T16:36:24.752Z,96.90
2023-02-14T16:38:52.949Z,97.20
2023-02-14T16:41:28.946Z,97.30
2023-02-14T16:43:57.996Z,97.50
2023-02-14T16:46:35.477Z,98.50
2023-02-14T16:49:02.460Z,97.90
2023-02-14T16:51:33.293Z,98.10
2023-02-14T16:54:06.154Z,98.10
2023-02-14T16:56:51.670Z,98.30
2023-02-14T16:59:18.640Z,98.40
2023-02-14T17:01:45.778Z,98.40
2023-02-14T17:04:12.948Z,98.60
2023-02-14T17:06:46.994Z,98.70
2023-02-14T17:09:19.632Z,98.90
2023-02-14T17:11:49.722Z,99.90
2023-02-14T17:14:22.481Z,99.10
2023-02-14T17:16:49.694Z,99.30
2023-02-14T17:19:17.821Z,99.90
2023-02-14T17:21:45.036Z,99.60
2023-02-14T17:24:12.088Z,99.80
2023-02-14T17:26:39.065Z,99.80
2023-02-14T17:29:06.854Z,99.90
2023-02-14T17:31:34.824Z,99.90
2023-02-14T17:34:01.872Z,99.90
2023-02-14T17:36:30.312Z,99.90
2023-02-14T17:38:57.238Z,99.90
2023-02-14T17:41:26.489Z,99.90
2023-02-14T17:43:54.862Z,99.90
2023-02-14T17:46:22.540Z,99.90
2023-02-14T17:48:49.731Z,99.90
2023-02-14T17:51:20.273Z,99.90
2023-02-14T17:53:48.621Z,99.90
2023-02-14T17:56:20.955Z,99.90
2023-02-14T17:58:50.695Z,99.90
2023-02-14T18:01:24.618Z,99.90
2023-02-14T18:03:52.894Z,99.90
2023-02-14T18:06:20.113Z,99.90
2023-02-14T18:08:49.858Z,99.90
2023-02-14T18:11:18.856Z,99.90
2023-02-14T18:13:46.215Z,99.90
2023-02-14T18:16:16.962Z,99.90
2023-02-14T18:18:44.404Z,99.90
2023-02-14T18:21:15.630Z,99.90
2023-02-14T18:23:43.161Z,99.90
2023-02-14T18:26:16.638Z,99.90
2023-02-14T18:28:43.572Z,99.90
2023-02-14T18:31:16.682Z,99.90
2023-02-14T18:33:44.801Z,99.90
2023-02-14T18:36:15.639Z,99.90
2023-02-14T18:38:45.569Z,99.90
2023-02-14T18:41:16.059Z,99.90
2023-02-14T18:43:44.578Z,99.90
2023-02-14T18:46:21.259Z,99.90
2023-02-14T18:48:48.420Z,99.90
2023-02-14T18:51:39.329Z,99.90
2023-02-14T18:54:07.347Z,99.90
2023-02-14T18:56:38.077Z,99.90
2023-02-14T18:59:10.435Z,99.90
2023-02-14T19:01:43.348Z,99.90
2023-02-14T19:04:12.440Z,99.90
2023-02-14T19:06:41.816Z,99.90
2023-02-14T19:09:11.978Z,99.90
2023-02-14T19:11:39.722Z,99.90
2023-02-14T19:14:10.124Z,99.90
2023-02-14T19:16:51.146Z,99.90
2023-02-14T19:19:18.718Z,99.90
2023-02-14T19:21:46.077Z,99.90
2023-02-14T19:24:13.714Z,99.90
2023-02-14T19:26:40.951Z,99.90
2023-02-14T19:29:12.871Z,99.90
2023-02-14T19:31:43.892Z,99.90
2023-02-14T19:34:29.276Z,99.90
2023-02-14T19:37:00.331Z,99.90
2023-02-14T19:39:32.311Z,99.90
2023-02-14T19:42:00.386Z,99.90
2023-02-14T19:44:29.195Z,99.90
2023-02-14T19:46:56.617Z,99.90
2023-02-14T19:49:24.205Z,99.90
2023-02-14T19:51:51.429Z,99.90
2023-02-14T19:54:19.617Z,99.90
2023-02-14T19:56:47.899Z,99.90
2023-02-14T19:59:19.860Z,99.90
2023-02-14T20:01:55.226Z,99.90
2023-02-14T20:04:28.524Z,99.90
2023-02-14T20:06:56.035Z,99.90
2023-02-14T20:09:23.570Z,99.90
2023-02-14T20:11:54.500Z,99.90
2023-02-14T20:14:35.965Z,99.90
2023-02-14T20:17:08.135Z,99.90
2023-02-14T20:19:37.018Z,99.90
2023-02-14T20:22:04.992Z,99.90
2023-02-14T20:24:32.759Z,99.90
2023-02-14T20:27:00.534Z,99.90
2023-02-14T20:29:28.215Z,99.90
2023-02-14T20:32:03.549Z,99.90
2023-02-14T20:34:31.854Z,99.90
2023-02-14T20:36:59.241Z,99.90
2023-02-14T20:39:33.172Z,99.90
2023-02-14T20:42:01.509Z,99.90
2023-02-14T20:44:28.632Z,99.90
2023-02-14T20:46:57.034Z,99.90
2023-02-14T20:49:27.422Z,99.90
2023-02-14T20:51:54.808Z,99.90
2023-02-14T20:54:25.198Z,99.90
2023-02-14T20:56:52.790Z,99.90
2023-02-14T20:59:26.945Z,99.90
2023-02-14T21:01:55.287Z,99.90
2023-02-14T21:04:22.826Z,99.90
2023-02-14T21:06:49.833Z,99.90
2023-02-14T21:09:18.640Z,99.90
2023-02-14T21:11:45.619Z,99.90
2023-02-14T21:14:12.613Z,99.90
2023-02-14T21:16:39.676Z,99.90
2023-02-14T21:19:06.664Z,99.90
2023-02-14T21:21:36.570Z,99.90
2023-02-14T21:24:09.238Z,99.90
2023-02-14T21:26:36.389Z,99.90
2023-02-14T21:29:03.667Z,99.90
2023-02-14T21:31:31.418Z,99.90
2023-02-14T21:34:00.545Z,99.90
2023-02-14T21:36:33.285Z,99.90
2023-02-14T21:39:00.522Z,99.90
2023-02-14T21:41:30.440Z,99.90
2023-02-14T21:43:59.803Z,99.90
2023-02-14T21:46:36.082Z,99.90
2023-02-14T21:49:23.974Z,99.90
2023-02-14T21:51:51.157Z,99.90
2023-02-14T21:54:18.130Z,99.90
2023-02-14T21:56:45.503Z,99.90
2023-02-14T21:59:13.026Z,99.90
2023-02-14T22:01:42.124Z,99.90
2023-02-14T22:04:12.204Z,99.90
2023-02-14T22:06:41.716Z,99.90
2023-02-14T22:09:13.865Z,99.90
2023-02-14T22:11:41.378Z,99.90
2023-02-14T22:14:08.543Z,99.90
2023-02-14T22:16:38.437Z,99.90
2023-02-14T22:19:07.296Z,99.90
2023-02-14T22:21:34.889Z,99.90
2023-02-14T22:24:02.067Z,99.90
2023-02-14T22:26:38.656Z,99.90
2023-02-14T22:29:06.242Z,99.90
2023-02-14T22:31:39.703Z,99.90
2023-02-14T22:34:10.011Z,99.90
2023-02-14T22:36:37.433Z,99.90
2023-02-14T22:39:05.876Z,99.90
2023-02-14T22:44:05.795Z,99.90
2023-02-14T22:46:33.184Z,99.90
2023-02-14T22:51:29.301Z,99.90
2023-02-14T22:53:59.510Z,99.90
2023-02-14T22:56:36.937Z,99.90
2023-02-14T22:59:08.483Z,99.90
2023-02-14T23:01:36.010Z,99.90
2023-02-14T23:04:04.127Z,99.90
2023-02-14T23:06:34.435Z,99.90
2023-02-14T23:09:07.186Z,99.90
2023-02-14T23:11:37.084Z,99.90
2023-02-14T23:14:23.675Z,99.90
2023-02-14T23:17:09.612Z,99.90
2023-02-14T23:19:55.208Z,99.90
2023-02-14T23:22:26.247Z,99.90
2023-02-14T23:24:57.259Z,99.90
2023-02-14T23:27:36.710Z,99.90
2023-02-14T23:30:06.374Z,99.90
2023-02-14T23:32:33.405Z,99.90
2023-02-14T23:35:00.518Z,99.90
2023-02-14T23:37:27.542Z,99.90
2023-02-14T23:39:54.571Z,99.90
2023-02-14T23:42:21.531Z,99.90
2023-02-14T23:47:18.272Z,99.90
2023-02-14T23:52:13.838Z,99.90
2023-02-14T23:54:40.963Z,99.90
2023-02-14T23:57:09.128Z,99.90
2023-02-14T23:59:36.121Z,99.90
